Аэропорт: Чертовицкое. Воронеж

ICAO: UUOO

METAR:
2019-09-21 16:00:00
UUOO 211600Z 27003MPS 9999 BKN046 08/M00 Q1014 R30/090070 NOSIG RMK QFE747
METAR:
2019-09-21 14:00:00
TAF UUOO 211400Z 2115/2124 32003MPS 9999 BKN020CB